sensor_id;sensor_type;location;lat;lon;timestamp;temperature;humidity
3454;DHT22;1741;51.294;8.608;2024-03-23T00:54:51;4.30;99.90
3454;DHT22;1741;51.294;8.608;2024-03-23T00:57:17;4.30;99.90
3454;DHT22;1741;51.294;8.608;2024-03-23T00:59:43;4.20;99.90
3454;DHT22;1741;51.294;8.608;2024-03-23T01:02:09;4.10;99.90
3454;DHT22;1741;51.294;8.608;2024-03-23T01:04:36;4.10;99.90
3454;DHT22;1741;51.294;8.608;2024-03-23T01:07:02;4.10;99.90
3454;DHT22;1741;51.294;8.608;2024-03-23T01:09:28;4.00;99.90
3454;DHT22;1741;51.294;8.608;2024-03-23T01:11:54;4.00;99.90
3454;DHT22;1741;51.294;8.608;2024-03-23T01:14:20;3.80;99.90
3454;DHT22;1741;51.294;8.608;2024-03-23T01:16:46;3.90;99.90
3454;DHT22;1741;51.294;8.608;2024-03-23T01:19:12;3.80;99.90
3454;DHT22;1741;51.294;8.608;2024-03-23T01:21:38;3.80;99.90
3454;DHT22;1741;51.294;8.608;2024-03-23T01:24:04;3.80;99.90
3454;DHT22;1741;51.294;8.608;2024-03-23T01:26:30;3.70;99.90
3454;DHT22;1741;51.294;8.608;2024-03-23T01:28:56;3.70;99.90
3454;DHT22;1741;51.294;8.608;2024-03-23T01:31:22;3.60;99.90
3454;DHT22;1741;51.294;8.608;2024-03-23T01:33:48;3.60;99.90
3454;DHT22;1741;51.294;8.608;2024-03-23T01:36:15;3.50;99.90
3454;DHT22;1741;51.294;8.608;2024-03-23T01:38:41;3.50;99.90
3454;DHT22;1741;51.294;8.608;2024-03-23T01:41:07;3.40;99.90
3454;DHT22;1741;51.294;8.608;2024-03-23T01:43:33;3.30;99.90
3454;DHT22;1741;51.294;8.608;2024-03-23T01:45:59;3.30;99.90
3454;DHT22;1741;51.294;8.608;2024-03-23T01:48:25;3.10;99.90
3454;DHT22;1741;51.294;8.608;2024-03-23T01:50:52;3.10;99.90
3454;DHT22;1741;51.294;8.608;2024-03-23T01:53:18;3.00;99.90
3454;DHT22;1741;51.294;8.608;2024-03-23T01:55:48;2.90;99.90
3454;DHT22;1741;51.294;8.608;2024-03-23T01:58:14;3.00;99.90
3454;DHT22;1741;51.294;8.608;2024-03-23T02:00:40;2.90;99.90
3454;DHT22;1741;51.294;8.608;2024-03-23T02:03:22;2.80;99.90
3454;DHT22;1741;51.294;8.608;2024-03-23T02:05:51;2.80;99.90
3454;DHT22;1741;51.294;8.608;2024-03-23T02:08:20;2.70;99.90
3454;DHT22;1741;51.294;8.608;2024-03-23T02:10:47;2.70;99.90
3454;DHT22;1741;51.294;8.608;2024-03-23T02:13:15;2.70;99.90
3454;DHT22;1741;51.294;8.608;2024-03-23T02:15:42;2.70;99.90
3454;DHT22;1741;51.294;8.608;2024-03-23T02:18:08;2.60;99.90
3454;DHT22;1741;51.294;8.608;2024-03-23T02:20:35;2.60;99.90
3454;DHT22;1741;51.294;8.608;2024-03-23T02:23:02;2.70;99.90
3454;DHT22;1741;51.294;8.608;2024-03-23T02:25:28;2.70;99.90
3454;DHT22;1741;51.294;8.608;2024-03-23T02:27:54;2.70;99.90
3454;DHT22;1741;51.294;8.608;2024-03-23T02:30:21;2.70;99.90
3454;DHT22;1741;51.294;8.608;2024-03-23T02:32:48;2.70;99.90
3454;DHT22;1741;51.294;8.608;2024-03-23T02:35:14;2.70;99.90
3454;DHT22;1741;51.294;8.608;2024-03-23T02:37:40;2.60;99.90
3454;DHT22;1741;51.294;8.608;2024-03-23T02:40:06;2.50;99.90
3454;DHT22;1741;51.294;8.608;2024-03-23T02:42:32;2.50;99.90
3454;DHT22;1741;51.294;8.608;2024-03-23T02:44:59;2.50;99.90
3454;DHT22;1741;51.294;8.608;2024-03-23T02:47:25;2.50;99.90
3454;DHT22;1741;51.294;8.608;2024-03-23T02:49:51;2.30;99.90
3454;DHT22;1741;51.294;8.608;2024-03-23T02:52:17;2.20;99.90
3454;DHT22;1741;51.294;8.608;2024-03-23T02:54:43;2.20;99.90
3454;DHT22;1741;51.294;8.608;2024-03-23T02:57:11;2.20;99.90
3454;DHT22;1741;51.294;8.608;2024-03-23T02:59:38;2.10;99.90
3454;DHT22;1741;51.294;8.608;2024-03-23T03:02:06;2.20;99.90
3454;DHT22;1741;51.294;8.608;2024-03-23T03:04:32;2.20;99.90
3454;DHT22;1741;51.294;8.608;2024-03-23T03:06:58;2.20;99.90
3454;DHT22;1741;51.294;8.608;2024-03-23T03:09:26;2.20;99.90
3454;DHT22;1741;51.294;8.608;2024-03-23T03:11:52;2.10;99.90
3454;DHT22;1741;51.294;8.608;2024-03-23T03:14:18;2.10;99.90
3454;DHT22;1741;51.294;8.608;2024-03-23T03:16:44;2.10;99.90
3454;DHT22;1741;51.294;8.608;2024-03-23T03:19:10;2.00;99.90
3454;DHT22;1741;51.294;8.608;2024-03-23T03:21:36;1.80;99.90
3454;DHT22;1741;51.294;8.608;2024-03-23T03:24:03;1.70;99.90
3454;DHT22;1741;51.294;8.608;2024-03-23T03:26:29;1.60;99.90
3454;DHT22;1741;51.294;8.608;2024-03-23T03:28:55;1.60;99.90
3454;DHT22;1741;51.294;8.608;2024-03-23T03:31:23;1.60;99.90
3454;DHT22;1741;51.294;8.608;2024-03-23T03:33:50;1.60;99.90
3454;DHT22;1741;51.294;8.608;2024-03-23T03:36:17;1.60;99.90
3454;DHT22;1741;51.294;8.608;2024-03-23T03:38:42;1.60;99.90
3454;DHT22;1741;51.294;8.608;2024-03-23T03:41:08;1.50;99.90
3454;DHT22;1741;51.294;8.608;2024-03-23T03:43:35;1.50;99.90
3454;DHT22;1741;51.294;8.608;2024-03-23T03:46:02;1.50;99.90
3454;DHT22;1741;51.294;8.608;2024-03-23T03:48:29;1.40;99.90
3454;DHT22;1741;51.294;8.608;2024-03-23T03:50:55;1.40;99.90
3454;DHT22;1741;51.294;8.608;2024-03-23T03:53:21;1.40;99.90
3454;DHT22;1741;51.294;8.608;2024-03-23T03:55:47;1.40;99.90
3454;DHT22;1741;51.294;8.608;2024-03-23T03:58:14;1.40;99.90
3454;DHT22;1741;51.294;8.608;2024-03-23T04:00:40;1.40;99.90
3454;DHT22;1741;51.294;8.608;2024-03-23T04:03:06;1.40;99.90
3454;DHT22;1741;51.294;8.608;2024-03-23T04:05:32;1.50;99.90
3454;DHT22;1741;51.294;8.608;2024-03-23T04:07:58;1.40;99.90
3454;DHT22;1741;51.294;8.608;2024-03-23T04:10:25;1.40;99.90
3454;DHT22;1741;51.294;8.608;2024-03-23T04:12:52;1.40;99.90
3454;DHT22;1741;51.294;8.608;2024-03-23T04:15:22;1.40;99.90
3454;DHT22;1741;51.294;8.608;2024-03-23T04:17:48;1.40;99.90
3454;DHT22;1741;51.294;8.608;2024-03-23T04:20:14;1.40;99.90
3454;DHT22;1741;51.294;8.608;2024-03-23T04:22:45;1.40;99.90
3454;DHT22;1741;51.294;8.608;2024-03-23T04:25:13;1.30;99.90
3454;DHT22;1741;51.294;8.608;2024-03-23T04:27:40;1.30;99.90
3454;DHT22;1741;51.294;8.608;2024-03-23T04:30:08;1.20;99.90
3454;DHT22;1741;51.294;8.608;2024-03-23T04:32:37;1.10;99.90
3454;DHT22;1741;51.294;8.608;2024-03-23T04:35:04;1.10;99.90
3454;DHT22;1741;51.294;8.608;2024-03-23T04:37:36;1.00;99.90
3454;DHT22;1741;51.294;8.608;2024-03-23T04:40:03;1.00;99.90
3454;DHT22;1741;51.294;8.608;2024-03-23T04:42:32;1.00;99.90
3454;DHT22;1741;51.294;8.608;2024-03-23T04:44:58;0.90;99.90
3454;DHT22;1741;51.294;8.608;2024-03-23T04:47:24;0.90;99.90
3454;DHT22;1741;51.294;8.608;2024-03-23T04:49:52;0.90;99.90
3454;DHT22;1741;51.294;8.608;2024-03-23T04:52:18;0.90;99.90
3454;DHT22;1741;51.294;8.608;2024-03-23T04:54:45;0.90;99.90
3454;DHT22;1741;51.294;8.608;2024-03-23T04:57:13;0.80;99.90
3454;DHT22;1741;51.294;8.608;2024-03-23T04:59:46;0.80;99.90
3454;DHT22;1741;51.294;8.608;2024-03-23T05:02:13;0.70;99.90
3454;DHT22;1741;51.294;8.608;2024-03-23T05:04:41;0.70;99.90
3454;DHT22;1741;51.294;8.608;2024-03-23T05:07:08;0.60;99.90
3454;DHT22;1741;51.294;8.608;2024-03-23T05:09:34;0.60;99.90
3454;DHT22;1741;51.294;8.608;2024-03-23T05:12:02;0.60;99.90
3454;DHT22;1741;51.294;8.608;2024-03-23T05:14:28;0.60;99.90
3454;DHT22;1741;51.294;8.608;2024-03-23T05:16:54;0.60;99.90
3454;DHT22;1741;51.294;8.608;2024-03-23T05:19:22;0.50;99.90
3454;DHT22;1741;51.294;8.608;2024-03-23T05:21:48;0.50;99.90
3454;DHT22;1741;51.294;8.608;2024-03-23T05:24:15;0.50;99.90
3454;DHT22;1741;51.294;8.608;2024-03-23T05:26:42;0.50;99.90
3454;DHT22;1741;51.294;8.608;2024-03-23T05:29:08;0.50;99.90
3454;DHT22;1741;51.294;8.608;2024-03-23T05:31:40;0.50;99.90
3454;DHT22;1741;51.294;8.608;2024-03-23T05:34:11;0.50;99.90
3454;DHT22;1741;51.294;8.608;2024-03-23T05:36:37;0.50;99.90
3454;DHT22;1741;51.294;8.608;2024-03-23T05:39:04;0.50;99.90
3454;DHT22;1741;51.294;8.608;2024-03-23T05:41:31;0.50;99.90
3454;DHT22;1741;51.294;8.608;2024-03-23T05:43:57;0.50;99.90
3454;DHT22;1741;51.294;8.608;2024-03-23T05:46:27;0.50;99.90
3454;DHT22;1741;51.294;8.608;2024-03-23T05:49:01;0.50;99.90
3454;DHT22;1741;51.294;8.608;2024-03-23T05:51:27;0.50;99.90
3454;DHT22;1741;51.294;8.608;2024-03-23T05:53:53;0.50;99.90
3454;DHT22;1741;51.294;8.608;2024-03-23T05:56:20;0.50;99.90
3454;DHT22;1741;51.294;8.608;2024-03-23T05:58:47;0.50;99.90
3454;DHT22;1741;51.294;8.608;2024-03-23T06:01:14;0.50;99.90
3454;DHT22;1741;51.294;8.608;2024-03-23T06:03:40;0.50;99.90
3454;DHT22;1741;51.294;8.608;2024-03-23T06:06:06;0.50;99.90
3454;DHT22;1741;51.294;8.608;2024-03-23T06:08:39;0.50;99.90
3454;DHT22;1741;51.294;8.608;2024-03-23T06:11:05;0.50;99.90
3454;DHT22;1741;51.294;8.608;2024-03-23T06:13:34;0.50;99.90
3454;DHT22;1741;51.294;8.608;2024-03-23T06:16:01;0.50;99.90
3454;DHT22;1741;51.294;8.608;2024-03-23T06:18:27;0.50;99.90
3454;DHT22;1741;51.294;8.608;2024-03-23T06:20:54;0.50;99.90
3454;DHT22;1741;51.294;8.608;2024-03-23T06:23:21;0.50;99.90
3454;DHT22;1741;51.294;8.608;2024-03-23T06:25:47;0.60;99.90
3454;DHT22;1741;51.294;8.608;2024-03-23T06:28:14;0.60;99.90
3454;DHT22;1741;51.294;8.608;2024-03-23T06:30:40;0.60;99.90
3454;DHT22;1741;51.294;8.608;2024-03-23T06:33:08;0.60;99.90
3454;DHT22;1741;51.294;8.608;2024-03-23T06:35:36;0.70;99.90
3454;DHT22;1741;51.294;8.608;2024-03-23T06:38:02;0.70;99.90
3454;DHT22;1741;51.294;8.608;2024-03-23T06:40:28;0.60;99.90
3454;DHT22;1741;51.294;8.608;2024-03-23T06:42:55;0.70;99.90
3454;DHT22;1741;51.294;8.608;2024-03-23T06:45:24;0.70;99.90
3454;DHT22;1741;51.294;8.608;2024-03-23T06:47:50;0.60;99.90
3454;DHT22;1741;51.294;8.608;2024-03-23T06:50:18;0.70;99.90
3454;DHT22;1741;51.294;8.608;2024-03-23T06:52:44;0.70;99.90
3454;DHT22;1741;51.294;8.608;2024-03-23T06:55:11;0.70;99.90
3454;DHT22;1741;51.294;8.608;2024-03-23T06:57:37;0.70;99.90
3454;DHT22;1741;51.294;8.608;2024-03-23T07:00:05;0.70;99.90
3454;DHT22;1741;51.294;8.608;2024-03-23T07:02:35;0.80;99.90
3454;DHT22;1741;51.294;8.608;2024-03-23T07:05:01;0.80;99.90
3454;DHT22;1741;51.294;8.608;2024-03-23T07:07:28;0.90;99.90
3454;DHT22;1741;51.294;8.608;2024-03-23T07:09:56;1.00;99.90
3454;DHT22;1741;51.294;8.608;2024-03-23T07:12:22;1.00;99.90
3454;DHT22;1741;51.294;8.608;2024-03-23T07:14:48;1.00;99.90
3454;DHT22;1741;51.294;8.608;2024-03-23T07:17:14;1.20;99.90
3454;DHT22;1741;51.294;8.608;2024-03-23T07:19:40;1.20;99.90
3454;DHT22;1741;51.294;8.608;2024-03-23T07:22:06;1.30;99.90
3454;DHT22;1741;51.294;8.608;2024-03-23T07:24:33;1.40;99.90
3454;DHT22;1741;51.294;8.608;2024-03-23T07:26:59;1.40;99.90
3454;DHT22;1741;51.294;8.608;2024-03-23T07:29:26;1.40;99.90
3454;DHT22;1741;51.294;8.608;2024-03-23T07:31:53;1.50;99.90
3454;DHT22;1741;51.294;8.608;2024-03-23T07:34:19;1.40;99.90
3454;DHT22;1741;51.294;8.608;2024-03-23T07:36:45;1.50;99.90
3454;DHT22;1741;51.294;8.608;2024-03-23T07:39:11;1.50;99.90
3454;DHT22;1741;51.294;8.608;2024-03-23T07:41:37;1.50;99.90
3454;DHT22;1741;51.294;8.608;2024-03-23T07:44:03;1.60;99.90
3454;DHT22;1741;51.294;8.608;2024-03-23T07:46:29;1.70;99.90
3454;DHT22;1741;51.294;8.608;2024-03-23T07:48:58;1.80;99.90
3454;DHT22;1741;51.294;8.608;2024-03-23T07:51:24;2.00;99.90
3454;DHT22;1741;51.294;8.608;2024-03-23T07:53:50;2.10;99.90
3454;DHT22;1741;51.294;8.608;2024-03-23T07:56:18;2.00;99.90
3454;DHT22;1741;51.294;8.608;2024-03-23T07:58:45;1.90;99.90
3454;DHT22;1741;51.294;8.608;2024-03-23T08:01:15;1.90;99.90
3454;DHT22;1741;51.294;8.608;2024-03-23T08:03:45;1.80;99.90
3454;DHT22;1741;51.294;8.608;2024-03-23T08:06:13;1.80;99.90
3454;DHT22;1741;51.294;8.608;2024-03-23T08:08:40;1.80;99.90
3454;DHT22;1741;51.294;8.608;2024-03-23T08:11:07;1.80;99.90
3454;DHT22;1741;51.294;8.608;2024-03-23T08:13:34;1.80;99.90
3454;DHT22;1741;51.294;8.608;2024-03-23T08:16:02;1.80;99.90
3454;DHT22;1741;51.294;8.608;2024-03-23T08:18:29;1.70;99.90
3454;DHT22;1741;51.294;8.608;2024-03-23T08:21:05;1.60;99.90
3454;DHT22;1741;51.294;8.608;2024-03-23T08:23:33;1.60;99.90
3454;DHT22;1741;51.294;8.608;2024-03-23T08:26:09;1.60;99.90
3454;DHT22;1741;51.294;8.608;2024-03-23T08:28:36;1.50;99.90
3454;DHT22;1741;51.294;8.608;2024-03-23T08:31:13;1.50;99.90
3454;DHT22;1741;51.294;8.608;2024-03-23T08:33:40;1.60;99.90
3454;DHT22;1741;51.294;8.608;2024-03-23T08:36:10;1.70;99.90
3454;DHT22;1741;51.294;8.608;2024-03-23T08:38:40;1.90;99.90
3454;DHT22;1741;51.294;8.608;2024-03-23T08:41:10;2.00;99.90
3454;DHT22;1741;51.294;8.608;2024-03-23T08:43:38;2.20;99.90
3454;DHT22;1741;51.294;8.608;2024-03-23T08:46:09;2.30;99.90
3454;DHT22;1741;51.294;8.608;2024-03-23T08:48:40;2.30;99.90
3454;DHT22;1741;51.294;8.608;2024-03-23T08:51:08;2.20;99.90
3454;DHT22;1741;51.294;8.608;2024-03-23T08:53:35;2.20;99.90
3454;DHT22;1741;51.294;8.608;2024-03-23T08:56:02;2.20;99.90
3454;DHT22;1741;51.294;8.608;2024-03-23T08:58:30;2.20;99.90
3454;DHT22;1741;51.294;8.608;2024-03-23T09:01:04;2.30;99.90
3454;DHT22;1741;51.294;8.608;2024-03-23T09:03:30;2.60;99.90
3454;DHT22;1741;51.294;8.608;2024-03-23T09:05:57;2.90;99.90
3454;DHT22;1741;51.294;8.608;2024-03-23T09:08:24;3.10;99.90
3454;DHT22;1741;51.294;8.608;2024-03-23T09:10:52;3.10;99.90
3454;DHT22;1741;51.294;8.608;2024-03-23T09:13:18;3.10;99.90
3454;DHT22;1741;51.294;8.608;2024-03-23T09:15:49;3.20;99.90
3454;DHT22;1741;51.294;8.608;2024-03-23T09:18:17;3.10;99.90
3454;DHT22;1741;51.294;8.608;2024-03-23T09:20:44;3.20;99.90
3454;DHT22;1741;51.294;8.608;2024-03-23T09:23:12;3.30;99.90
3454;DHT22;1741;51.294;8.608;2024-03-23T09:25:39;3.40;99.90
3454;DHT22;1741;51.294;8.608;2024-03-23T09:28:06;3.50;99.90
3454;DHT22;1741;51.294;8.608;2024-03-23T09:30:35;3.60;99.90
3454;DHT22;1741;51.294;8.608;2024-03-23T09:33:02;3.90;99.90
3454;DHT22;1741;51.294;8.608;2024-03-23T09:35:28;4.20;99.90
3454;DHT22;1741;51.294;8.608;2024-03-23T09:37:55;4.40;99.90
3454;DHT22;1741;51.294;8.608;2024-03-23T09:40:22;4.20;99.90
3454;DHT22;1741;51.294;8.608;2024-03-23T09:42:53;4.30;99.90
3454;DHT22;1741;51.294;8.608;2024-03-23T09:45:28;4.30;99.90
3454;DHT22;1741;51.294;8.608;2024-03-23T09:47:57;4.30;99.90
3454;DHT22;1741;51.294;8.608;2024-03-23T09:50:24;4.50;99.90
3454;DHT22;1741;51.294;8.608;2024-03-23T09:52:51;4.30;99.90
3454;DHT22;1741;51.294;8.608;2024-03-23T09:55:19;4.50;99.90
3454;DHT22;1741;51.294;8.608;2024-03-23T09:57:45;4.80;99.90
3454;DHT22;1741;51.294;8.608;2024-03-23T10:00:11;4.70;99.90
3454;DHT22;1741;51.294;8.608;2024-03-23T10:02:40;4.40;99.90
3454;DHT22;1741;51.294;8.608;2024-03-23T10:05:20;3.80;99.90
3454;DHT22;1741;51.294;8.608;2024-03-23T10:07:48;3.40;99.90
3454;DHT22;1741;51.294;8.608;2024-03-23T10:10:18;3.10;99.90
3454;DHT22;1741;51.294;8.608;2024-03-23T10:12:48;2.80;99.90
3454;DHT22;1741;51.294;8.608;2024-03-23T10:15:19;2.70;99.90
3454;DHT22;1741;51.294;8.608;2024-03-23T10:17:46;2.90;99.90
3454;DHT22;1741;51.294;8.608;2024-03-23T10:20:12;3.10;99.90
3454;DHT22;1741;51.294;8.608;2024-03-23T10:22:38;3.40;99.90
3454;DHT22;1741;51.294;8.608;2024-03-23T10:25:09;3.60;99.90
3454;DHT22;1741;51.294;8.608;2024-03-23T10:27:36;4.10;99.90
3454;DHT22;1741;51.294;8.608;2024-03-23T10:30:13;4.50;99.90
3454;DHT22;1741;51.294;8.608;2024-03-23T10:32:43;4.70;99.90
3454;DHT22;1741;51.294;8.608;2024-03-23T10:35:19;4.80;99.90
3454;DHT22;1741;51.294;8.608;2024-03-23T10:37:48;5.10;99.90
3454;DHT22;1741;51.294;8.608;2024-03-23T10:40:15;5.50;99.90
3454;DHT22;1741;51.294;8.608;2024-03-23T10:42:41;5.90;99.90
3454;DHT22;1741;51.294;8.608;2024-03-23T10:45:08;6.10;99.90
3454;DHT22;1741;51.294;8.608;2024-03-23T10:47:36;6.30;99.90
3454;DHT22;1741;51.294;8.608;2024-03-23T10:50:04;6.50;99.90
3454;DHT22;1741;51.294;8.608;2024-03-23T10:52:33;6.70;99.90
3454;DHT22;1741;51.294;8.608;2024-03-23T10:55:03;6.70;99.90
3454;DHT22;1741;51.294;8.608;2024-03-23T10:57:51;6.50;99.90
3454;DHT22;1741;51.294;8.608;2024-03-23T11:00:19;4.70;99.90
3454;DHT22;1741;51.294;8.608;2024-03-23T11:02:49;2.70;99.90
3454;DHT22;1741;51.294;8.608;2024-03-23T11:05:30;1.80;99.90
3454;DHT22;1741;51.294;8.608;2024-03-23T11:07:57;1.40;99.90
3454;DHT22;1741;51.294;8.608;2024-03-23T11:10:31;1.10;99.90
3454;DHT22;1741;51.294;8.608;2024-03-23T11:13:23;0.90;99.90
3454;DHT22;1741;51.294;8.608;2024-03-23T11:15:49;0.70;99.90
3454;DHT22;1741;51.294;8.608;2024-03-23T11:18:20;0.70;99.90
3454;DHT22;1741;51.294;8.608;2024-03-23T11:20:47;0.80;99.90
3454;DHT22;1741;51.294;8.608;2024-03-23T11:23:29;1.00;99.90
3454;DHT22;1741;51.294;8.608;2024-03-23T11:25:56;1.20;99.90
3454;DHT22;1741;51.294;8.608;2024-03-23T11:28:22;1.50;99.90
3454;DHT22;1741;51.294;8.608;2024-03-23T11:30:49;1.80;99.90
3454;DHT22;1741;51.294;8.608;2024-03-23T11:33:15;2.00;99.90
3454;DHT22;1741;51.294;8.608;2024-03-23T11:35:42;2.30;99.90
3454;DHT22;1741;51.294;8.608;2024-03-23T11:38:16;2.50;99.90
3454;DHT22;1741;51.294;8.608;2024-03-23T11:40:48;2.80;99.90
3454;DHT22;1741;51.294;8.608;2024-03-23T11:43:19;3.00;99.90
3454;DHT22;1741;51.294;8.608;2024-03-23T11:45:51;3.10;99.90
3454;DHT22;1741;51.294;8.608;2024-03-23T11:48:23;3.20;99.90
3454;DHT22;1741;51.294;8.608;2024-03-23T11:50:56;3.30;99.90
3454;DHT22;1741;51.294;8.608;2024-03-23T11:53:25;3.50;99.90
3454;DHT22;1741;51.294;8.608;2024-03-23T11:55:57;3.60;99.90
3454;DHT22;1741;51.294;8.608;2024-03-23T11:58:25;4.10;99.90
3454;DHT22;1741;51.294;8.608;2024-03-23T12:00:59;4.10;99.90
3454;DHT22;1741;51.294;8.608;2024-03-23T12:03:26;4.30;99.90
3454;DHT22;1741;51.294;8.608;2024-03-23T12:05:55;4.50;99.90
3454;DHT22;1741;51.294;8.608;2024-03-23T12:11:08;4.60;99.90
3454;DHT22;1741;51.294;8.608;2024-03-23T12:13:36;4.30;99.90
3454;DHT22;1741;51.294;8.608;2024-03-23T12:16:20;4.40;99.90
3454;DHT22;1741;51.294;8.608;2024-03-23T12:18:50;4.50;99.90
3454;DHT22;1741;51.294;8.608;2024-03-23T12:21:20;4.50;99.90
3454;DHT22;1741;51.294;8.608;2024-03-23T12:23:49;4.60;99.90
3454;DHT22;1741;51.294;8.608;2024-03-23T12:26:16;4.60;99.90
3454;DHT22;1741;51.294;8.608;2024-03-23T12:28:43;4.70;99.90
3454;DHT22;1741;51.294;8.608;2024-03-23T12:31:10;4.90;99.90
3454;DHT22;1741;51.294;8.608;2024-03-23T12:33:36;5.10;99.90
3454;DHT22;1741;51.294;8.608;2024-03-23T12:36:03;5.30;99.90
3454;DHT22;1741;51.294;8.608;2024-03-23T12:38:30;5.70;99.90
3454;DHT22;1741;51.294;8.608;2024-03-23T12:40:56;5.90;99.90
3454;DHT22;1741;51.294;8.608;2024-03-23T12:43:23;5.90;99.90
3454;DHT22;1741;51.294;8.608;2024-03-23T12:45:49;5.60;99.90
3454;DHT22;1741;51.294;8.608;2024-03-23T12:48:16;5.00;99.90
3454;DHT22;1741;51.294;8.608;2024-03-23T12:50:44;3.60;99.90
3454;DHT22;1741;51.294;8.608;2024-03-23T12:53:10;2.80;99.90
3454;DHT22;1741;51.294;8.608;2024-03-23T12:55:37;2.30;99.90
3454;DHT22;1741;51.294;8.608;2024-03-23T12:58:03;2.00;99.90
3454;DHT22;1741;51.294;8.608;2024-03-23T13:00:30;1.80;99.90
3454;DHT22;1741;51.294;8.608;2024-03-23T13:02:59;2.00;99.90
3454;DHT22;1741;51.294;8.608;2024-03-23T13:05:26;2.30;99.90
3454;DHT22;1741;51.294;8.608;2024-03-23T13:07:52;2.60;99.90
3454;DHT22;1741;51.294;8.608;2024-03-23T13:10:21;3.00;99.90
3454;DHT22;1741;51.294;8.608;2024-03-23T13:12:47;3.20;99.90
3454;DHT22;1741;51.294;8.608;2024-03-23T13:15:13;3.40;99.90
3454;DHT22;1741;51.294;8.608;2024-03-23T13:17:43;3.50;99.90
3454;DHT22;1741;51.294;8.608;2024-03-23T13:20:09;3.70;99.90
3454;DHT22;1741;51.294;8.608;2024-03-23T13:22:40;3.90;99.90
3454;DHT22;1741;51.294;8.608;2024-03-23T13:25:07;4.30;99.90
3454;DHT22;1741;51.294;8.608;2024-03-23T13:27:34;4.50;99.90
3454;DHT22;1741;51.294;8.608;2024-03-23T13:30:02;4.60;99.90
3454;DHT22;1741;51.294;8.608;2024-03-23T13:32:31;4.60;99.90
3454;DHT22;1741;51.294;8.608;2024-03-23T13:34:58;4.80;99.90
3454;DHT22;1741;51.294;8.608;2024-03-23T13:37:24;5.10;99.90
3454;DHT22;1741;51.294;8.608;2024-03-23T13:39:51;5.50;99.90
3454;DHT22;1741;51.294;8.608;2024-03-23T13:42:17;5.70;99.90
3454;DHT22;1741;51.294;8.608;2024-03-23T13:44:44;5.90;99.90
3454;DHT22;1741;51.294;8.608;2024-03-23T13:47:10;6.10;99.90
3454;DHT22;1741;51.294;8.608;2024-03-23T13:49:36;5.90;99.90
3454;DHT22;1741;51.294;8.608;2024-03-23T13:52:04;5.70;99.90
3454;DHT22;1741;51.294;8.608;2024-03-23T13:54:30;5.80;99.90
3454;DHT22;1741;51.294;8.608;2024-03-23T13:56:57;5.70;99.90
3454;DHT22;1741;51.294;8.608;2024-03-23T13:59:23;5.50;99.90
3454;DHT22;1741;51.294;8.608;2024-03-23T14:01:50;5.30;99.90
3454;DHT22;1741;51.294;8.608;2024-03-23T14:04:17;4.90;99.90
3454;DHT22;1741;51.294;8.608;2024-03-23T14:06:43;4.60;99.90
3454;DHT22;1741;51.294;8.608;2024-03-23T14:09:14;4.10;99.90
3454;DHT22;1741;51.294;8.608;2024-03-23T14:11:43;3.60;99.90
3454;DHT22;1741;51.294;8.608;2024-03-23T14:14:09;3.10;99.90
3454;DHT22;1741;51.294;8.608;2024-03-23T14:16:35;2.90;99.90
3454;DHT22;1741;51.294;8.608;2024-03-23T14:19:01;3.50;99.90
3454;DHT22;1741;51.294;8.608;2024-03-23T14:21:27;4.20;99.90
3454;DHT22;1741;51.294;8.608;2024-03-23T14:23:53;4.80;99.90
3454;DHT22;1741;51.294;8.608;2024-03-23T14:26:21;5.30;99.90
3454;DHT22;1741;51.294;8.608;2024-03-23T14:28:50;5.20;99.90
3454;DHT22;1741;51.294;8.608;2024-03-23T14:31:16;5.00;99.90
3454;DHT22;1741;51.294;8.608;2024-03-23T14:33:43;4.50;99.90
3454;DHT22;1741;51.294;8.608;2024-03-23T14:36:13;4.20;99.90
3454;DHT22;1741;51.294;8.608;2024-03-23T14:38:40;4.30;99.90
3454;DHT22;1741;51.294;8.608;2024-03-23T14:41:06;4.60;99.90
3454;DHT22;1741;51.294;8.608;2024-03-23T14:43:34;5.20;99.90
3454;DHT22;1741;51.294;8.608;2024-03-23T14:46:13;5.60;99.90
3454;DHT22;1741;51.294;8.608;2024-03-23T14:48:39;6.30;99.90
3454;DHT22;1741;51.294;8.608;2024-03-23T14:51:07;6.50;99.90
3454;DHT22;1741;51.294;8.608;2024-03-23T14:53:38;7.10;99.90
3454;DHT22;1741;51.294;8.608;2024-03-23T14:56:08;7.10;99.90
3454;DHT22;1741;51.294;8.608;2024-03-23T14:58:37;7.30;99.90
3454;DHT22;1741;51.294;8.608;2024-03-23T15:01:07;6.40;99.90
3454;DHT22;1741;51.294;8.608;2024-03-23T15:03:38;5.90;99.90
3454;DHT22;1741;51.294;8.608;2024-03-23T15:06:05;5.20;99.90
3454;DHT22;1741;51.294;8.608;2024-03-23T15:08:33;4.80;99.90
3454;DHT22;1741;51.294;8.608;2024-03-23T15:11:00;4.60;99.90
3454;DHT22;1741;51.294;8.608;2024-03-23T15:13:36;4.30;99.90
3454;DHT22;1741;51.294;8.608;2024-03-23T15:16:06;4.10;99.90
3454;DHT22;1741;51.294;8.608;2024-03-23T15:18:34;3.90;99.90
3454;DHT22;1741;51.294;8.608;2024-03-23T15:21:03;4.10;99.90
3454;DHT22;1741;51.294;8.608;2024-03-23T15:23:32;4.30;99.90
3454;DHT22;1741;51.294;8.608;2024-03-23T15:26:00;4.10;99.90
3454;DHT22;1741;51.294;8.608;2024-03-23T15:28:29;3.90;99.90
3454;DHT22;1741;51.294;8.608;2024-03-23T15:31:08;3.70;99.90
3454;DHT22;1741;51.294;8.608;2024-03-23T15:33:35;3.70;99.90
3454;DHT22;1741;51.294;8.608;2024-03-23T15:36:17;3.80;99.90
3454;DHT22;1741;51.294;8.608;2024-03-23T15:38:45;4.20;99.90
3454;DHT22;1741;51.294;8.608;2024-03-23T15:41:12;5.20;99.90
3454;DHT22;1741;51.294;8.608;2024-03-23T15:43:38;5.20;99.90
3454;DHT22;1741;51.294;8.608;2024-03-23T15:46:05;4.80;99.90
3454;DHT22;1741;51.294;8.608;2024-03-23T15:48:37;4.70;99.90
3454;DHT22;1741;51.294;8.608;2024-03-23T15:51:03;4.30;99.90
3454;DHT22;1741;51.294;8.608;2024-03-23T15:53:33;4.10;99.90
3454;DHT22;1741;51.294;8.608;2024-03-23T15:56:01;4.00;99.90
3454;DHT22;1741;51.294;8.608;2024-03-23T15:58:28;3.80;99.90
3454;DHT22;1741;51.294;8.608;2024-03-23T16:00:55;3.80;99.90
3454;DHT22;1741;51.294;8.608;2024-03-23T16:03:23;4.30;99.90
3454;DHT22;1741;51.294;8.608;2024-03-23T16:05:53;4.70;99.90
3454;DHT22;1741;51.294;8.608;2024-03-23T16:08:20;4.70;99.90
3454;DHT22;1741;51.294;8.608;2024-03-23T16:10:47;4.40;99.90
3454;DHT22;1741;51.294;8.608;2024-03-23T16:13:14;4.30;99.90
3454;DHT22;1741;51.294;8.608;2024-03-23T16:15:40;4.20;99.90
3454;DHT22;1741;51.294;8.608;2024-03-23T16:18:06;4.10;99.90
3454;DHT22;1741;51.294;8.608;2024-03-23T16:20:33;4.00;99.90
3454;DHT22;1741;51.294;8.608;2024-03-23T16:23:01;3.80;99.90
3454;DHT22;1741;51.294;8.608;2024-03-23T16:25:27;3.80;99.90
3454;DHT22;1741;51.294;8.608;2024-03-23T16:27:58;3.70;99.90
3454;DHT22;1741;51.294;8.608;2024-03-23T16:30:26;3.60;99.90
3454;DHT22;1741;51.294;8.608;2024-03-23T16:32:54;3.50;99.90
3454;DHT22;1741;51.294;8.608;2024-03-23T16:35:20;3.40;99.90
3454;DHT22;1741;51.294;8.608;2024-03-23T16:37:46;3.30;99.90
3454;DHT22;1741;51.294;8.608;2024-03-23T16:40:13;3.20;99.90
3454;DHT22;1741;51.294;8.608;2024-03-23T16:42:40;3.00;99.90
3454;DHT22;1741;51.294;8.608;2024-03-23T16:45:07;2.90;99.90
3454;DHT22;1741;51.294;8.608;2024-03-23T16:47:34;2.80;99.90
3454;DHT22;1741;51.294;8.608;2024-03-23T16:50:00;2.70;99.90
3454;DHT22;1741;51.294;8.608;2024-03-23T16:52:26;2.70;99.90
3454;DHT22;1741;51.294;8.608;2024-03-23T16:54:52;2.60;99.90
3454;DHT22;1741;51.294;8.608;2024-03-23T16:57:18;2.60;99.90
3454;DHT22;1741;51.294;8.608;2024-03-23T16:59:46;2.50;99.90
3454;DHT22;1741;51.294;8.608;2024-03-23T17:02:12;2.50;99.90
3454;DHT22;1741;51.294;8.608;2024-03-23T17:04:38;2.40;99.90
3454;DHT22;1741;51.294;8.608;2024-03-23T17:07:04;2.30;99.90
3454;DHT22;1741;51.294;8.608;2024-03-23T17:09:30;2.20;99.90
3454;DHT22;1741;51.294;8.608;2024-03-23T17:11:56;2.20;99.90
3454;DHT22;1741;51.294;8.608;2024-03-23T17:14:26;2.10;99.90
3454;DHT22;1741;51.294;8.608;2024-03-23T17:16:52;2.00;99.90